• Join FlightAware (Why Join?)
  • Login
  • US Flag 
10:44PM EDT


 

Airport Tracker/Info


-or-


 

Live Flight TrackerFlight Track Log ✈ N965LG ✈ 20-May-2013 ✈ KVKS - KAUO

Flight Track Log - Related Links

Times and Time Zones

All times are in EDT time to prevent confusion due to time zone crossing. See the N965LG flight status page for this flight to view local times or setup timezone preferences in your user account.

Time Position Orientation Groundspeed Altitude Reporting Facility
EDT Latitude Longitude Course Direction KTS MPH feet Rate Location/Type
05:15PM 32.2725 -90.7700 68° East 225 259 6,100  Level Memphis Center
05:16PM 32.2936 -90.7211 63° Northeast 187 215 7,800 1,680 Climbing Memphis Center
05:17PM 32.3167 -90.6694 62° Northeast 174 200 9,500 1,680 Climbing Memphis Center
05:18PM 32.3314 -90.6156 72° East 169 194 11,200 1,560 Climbing Memphis Center
05:19PM 32.3522 -90.5689 62° Northeast 169 194 12,700 1,440 Climbing Memphis Center
05:20PM 32.3683 -90.5119 68° East  Level FlightAware Approximate
05:20PM 32.3753 -90.5122 64° Northeast 174 200 14,100  Level Memphis Center
05:21PM 32.3881 -90.4558 75° East 179 206 15,500 1,320 Climbing Memphis Center
05:22PM 32.3858 -90.3892 92° East 179 206 16,800 1,140 Climbing Memphis Center
05:23PM 32.3881 -90.3228 88° East 190 219 17,800 780 Climbing Memphis Center
05:24PM 32.3858 -90.2517 92° East 201 231 18,400 540 Climbing Memphis Center
05:25PM 32.3858 -90.1728 90° East 214 246 18,900 300 Climbing Memphis Center
05:26PM 32.3856 -90.0942 90° East 227 261 19,000  Climbing Memphis Center
05:27PM 32.3853 -90.0056 90° East 246 283 19,000  Level Memphis Center
05:28PM 32.3872 -89.9194 88° East 257 296 19,000  Level Memphis Center
05:29PM 32.3869 -89.8236 90° East 257 296 19,000  Level Memphis Center
05:30PM 32.3864 -89.7375 90° East 257 296 19,000  Level Memphis Center
05:31PM 32.3861 -89.6514 90° East 257 296 19,000  Level Memphis Center
05:32PM 32.3856 -89.5653 90° East 252 290 19,000  Level Memphis Center
05:33PM 32.3850 -89.4817 90° East 252 290 19,000  Level Memphis Center
05:34PM 32.3842 -89.3931 91° East 252 290 19,000  Level Memphis Center
05:35PM 32.3856 -89.3094 89° East 252 290 19,000  Level Memphis Center
05:36PM 32.3850 -89.2258 90° East 252 290 19,000  Level Memphis Center
05:37PM 32.3842 -89.1397 91° East 252 290 19,000  Level Memphis Center
05:38PM 32.3833 -89.0583 91° East 252 290 19,000  Level Memphis Center
05:39PM 32.3822 -88.9722 91° East 252 290 19,000  Level Memphis Center
05:40PM 32.3814 -88.8886 91° East 252 290 19,000  Level Memphis Center
05:42PM 32.3856 -88.7286 88° East 252 290 19,000  Level Memphis Center
05:44PM 32.3975 -88.5872 84° East 244 281 19,000  Level Atlanta Center
05:45PM 32.4047 -88.5014 84° East 244 281 19,000  Level Atlanta Center
05:46PM 32.4119 -88.4181 84° East 250 288 19,000  Level Atlanta Center
05:47PM 32.4192 -88.3347 84° East 255 293 19,000  Level Atlanta Center
05:48PM 32.4239 -88.2514 86° East 255 293 19,000  Level Atlanta Center
05:49PM 32.4331 -88.1658 83° East 255 293 19,000  Level Atlanta Center
05:50PM 32.4403 -88.0800 84° East 255 293 19,000  Level Atlanta Center
05:51PM 32.4450 -87.9964 86° East 250 288 19,000  Level Atlanta Center
05:52PM 32.4519 -87.9106 85° East 255 293 19,000  Level Atlanta Center
05:53PM 32.4608 -87.8272 83° East 255 293 19,000  Level Atlanta Center
05:54PM 32.4656 -87.7389 86° East 255 293 19,000  Level Atlanta Center
05:55PM 32.4747 -87.6433 83° East 255 293 19,000  Level Atlanta Center
05:56PM 32.4772 -87.5497 88° East 270 311 19,000 -180 Level Atlanta Center
05:57PM 32.4819 -87.4589 86° East 270 311 18,700 -420 Descending Atlanta Center
05:58PM 32.4822 -87.3678 90° East 270 311 18,200 -600 Descending Atlanta Center
05:59PM 32.4869 -87.2769 86° East 270 311 17,600 -660 Descending Atlanta Center
06:00PM 32.4914 -87.1858 87° East 270 311 16,900 -780 Descending Atlanta Center
06:01PM 32.4997 -87.0975 84° East 270 311 16,100 -780 Descending Atlanta Center
06:02PM 32.5103 -87.0069 82° East 270 311 15,400 -720 Descending Atlanta Center
06:03PM 32.5186 -86.9233 83° East 270 311 14,700 -720 Descending Atlanta Center
06:04PM 32.5228 -86.8372 87° East 265 305 14,000 -720 Descending Atlanta Center
06:05PM 32.5308 -86.7514 84° East 265 305 13,300 -720 Descending Atlanta Center
06:06PM 32.5369 -86.6678 85° East 259 298 12,600 -720 Descending Atlanta Center
06:07PM 32.5447 -86.5917 83° East 254 292 11,900 -840 Descending Atlanta Center
06:08PM 32.5528 -86.5081 83° East 254 292 11,000 -900 Descending Atlanta Center
06:09PM 32.5544 -86.4194 89° East 254 292 10,100 -900 Descending Atlanta Center
06:10PM 32.5581 -86.3333 87° East 254 292 9,200 -840 Descending Atlanta Center
06:12PM 32.5645 -86.1851 87° East  Level FlightAware Approximate
06:14PM 32.5833 -85.9500 90° East 245 282 5,800  Level Atlanta TRACON
06:15PM 32.5833 -85.8667 90° East 241 277 5,100 -420 Descending Atlanta TRACON
06:16PM 32.5833 -85.8000 90° East 221 254 5,000 -180 Descending Atlanta TRACON
06:17PM 32.6000 -85.7333 73° East 220 253 4,800 -240 Descending Atlanta TRACON
06:19PM 32.6000 -85.6320 90° East  Level FlightAware Approximate